createdAt,value
2022-11-12T00:01:23.327Z,83.93
2022-11-12T00:04:08.797Z,83.93
2022-11-12T00:06:53.581Z,83.98
2022-11-12T00:09:38.805Z,84.05
2022-11-12T00:12:23.630Z,84.10
2022-11-12T00:15:09.255Z,84.24
2022-11-12T00:17:54.219Z,83.96
2022-11-12T00:20:39.138Z,83.77
2022-11-12T00:23:24.274Z,83.67
2022-11-12T00:26:09.739Z,83.56
2022-11-12T00:28:55.210Z,83.60
2022-11-12T00:31:40.219Z,83.67
2022-11-12T00:34:25.086Z,83.83
2022-11-12T00:37:10.171Z,83.82
2022-11-12T00:39:54.961Z,83.68
2022-11-12T00:42:40.055Z,83.51
2022-11-12T00:45:24.861Z,83.47
2022-11-12T00:48:12.204Z,83.23
2022-11-12T00:51:02.093Z,83.58
2022-11-12T00:53:48.426Z,83.78
2022-11-12T00:56:35.664Z,83.77
2022-11-12T00:59:21.448Z,83.61
2022-11-12T01:02:06.404Z,83.42
2022-11-12T01:04:51.433Z,83.25
2022-11-12T01:07:36.250Z,83.43
2022-11-12T01:10:21.008Z,83.53
2022-11-12T01:13:06.054Z,83.86
2022-11-12T01:15:50.851Z,83.92
2022-11-12T01:18:35.993Z,83.92
2022-11-12T01:21:23.054Z,83.66
2022-11-12T01:24:08.579Z,83.49
2022-11-12T01:26:53.317Z,83.11
2022-11-12T01:29:38.214Z,83.03
2022-11-12T01:32:22.819Z,83.09
2022-11-12T01:35:07.879Z,83.19
2022-11-12T01:37:52.990Z,83.18
2022-11-12T01:40:37.608Z,83.27
2022-11-12T01:43:22.682Z,83.08
2022-11-12T01:46:19.370Z,82.95
2022-11-12T01:49:08.292Z,82.78
2022-11-12T01:51:56.274Z,82.54
2022-11-12T01:54:46.154Z,82.71
2022-11-12T01:57:37.072Z,82.76
2022-11-12T02:00:21.928Z,82.98
2022-11-12T02:03:14.414Z,83.06
2022-11-12T02:06:07.351Z,83.19
2022-11-12T02:08:52.789Z,83.04
2022-11-12T02:11:37.448Z,82.85
2022-11-12T02:14:22.232Z,82.98
2022-11-12T02:17:07.456Z,83.14
2022-11-12T02:19:52.416Z,83.07
2022-11-12T02:22:37.099Z,83.17
2022-11-12T02:25:24.027Z,83.28
2022-11-12T02:28:09.162Z,83.05
2022-11-12T02:30:54.093Z,82.90
2022-11-12T02:33:39.362Z,82.63
2022-11-12T02:36:25.114Z,82.69
2022-11-12T02:39:09.732Z,82.64
2022-11-12T02:41:54.784Z,82.72
2022-11-12T02:44:39.725Z,82.96
2022-11-12T02:47:24.613Z,83.19
2022-11-12T02:50:09.527Z,82.91
2022-11-12T02:52:54.353Z,82.74
2022-11-12T02:55:39.316Z,82.48
2022-11-12T02:58:24.601Z,82.44
2022-11-12T03:01:09.483Z,82.25
2022-11-12T03:03:54.697Z,82.56
2022-11-12T03:06:40.000Z,82.66
2022-11-12T03:09:25.026Z,83.06
2022-11-12T03:12:10.434Z,82.64
2022-11-12T03:14:55.499Z,82.35
2022-11-12T03:17:40.593Z,81.97
2022-11-12T03:20:26.193Z,81.92
2022-11-12T03:23:11.117Z,81.95
2022-11-12T03:25:56.329Z,82.06
2022-11-12T03:28:40.896Z,82.14
2022-11-12T03:31:26.069Z,82.18
2022-11-12T03:34:11.221Z,82.28
2022-11-12T03:36:56.145Z,82.17
2022-11-12T03:39:41.005Z,81.89
2022-11-12T03:42:25.984Z,81.75
2022-11-12T03:45:10.665Z,81.41
2022-11-12T03:47:57.462Z,81.41
2022-11-12T03:50:42.171Z,81.55
2022-11-12T03:53:28.209Z,81.66
2022-11-12T03:56:13.187Z,81.80
2022-11-12T03:58:58.359Z,81.95
2022-11-12T04:01:43.190Z,82.05
2022-11-12T04:04:47.870Z,81.79
2022-11-12T04:07:51.111Z,81.71
2022-11-12T04:10:35.735Z,81.84
2022-11-12T04:13:27.091Z,81.73
2022-11-12T04:16:39.552Z,82.08
2022-11-12T04:19:42.995Z,82.35
2022-11-12T04:22:29.360Z,82.61
2022-11-12T04:25:32.799Z,82.78
2022-11-12T04:28:17.556Z,82.64
2022-11-12T04:31:02.824Z,82.29
2022-11-12T04:33:47.307Z,82.16
2022-11-12T04:36:32.339Z,82.41
2022-11-12T04:39:17.254Z,82.12
2022-11-12T04:42:21.842Z,82.31
2022-11-12T04:45:09.897Z,82.53
2022-11-12T04:47:54.893Z,82.78
2022-11-12T04:50:40.906Z,82.61
2022-11-12T04:53:27.299Z,82.42
2022-11-12T04:56:12.435Z,82.16
2022-11-12T04:58:57.608Z,82.11
2022-11-12T05:01:42.604Z,82.05
2022-11-12T05:04:28.686Z,82.48
2022-11-12T05:07:13.893Z,82.70
2022-11-12T05:09:58.790Z,82.58
2022-11-12T05:12:44.083Z,82.25
2022-11-12T05:15:29.184Z,82.22
2022-11-12T05:18:14.162Z,82.07
2022-11-12T05:21:18.616Z,82.11
2022-11-12T05:24:03.878Z,81.88
2022-11-12T05:26:48.656Z,82.24
2022-11-12T05:29:33.842Z,82.43
2022-11-12T05:32:21.298Z,82.62
2022-11-12T05:35:06.747Z,82.50
2022-11-12T05:37:51.764Z,82.20
2022-11-12T05:40:36.545Z,81.99
2022-11-12T05:43:21.392Z,81.87
2022-11-12T05:46:06.301Z,81.76
2022-11-12T05:48:51.332Z,82.23
2022-11-12T05:51:36.465Z,82.46
2022-11-12T05:54:21.265Z,82.49
2022-11-12T05:57:05.917Z,82.36
2022-11-12T05:59:50.861Z,82.18
2022-11-12T06:02:35.572Z,82.15
2022-11-12T06:05:20.600Z,82.18
2022-11-12T06:08:05.988Z,81.97
2022-11-12T06:10:52.246Z,82.39
2022-11-12T06:13:37.024Z,82.77
2022-11-12T06:16:21.784Z,82.82
2022-11-12T06:19:06.890Z,82.55
2022-11-12T06:21:51.411Z,82.64
2022-11-12T06:24:36.578Z,82.73
2022-11-12T06:27:23.287Z,82.74
2022-11-12T06:30:08.662Z,83.21
2022-11-12T06:32:54.015Z,83.64
2022-11-12T06:35:42.721Z,83.91
2022-11-12T06:38:33.059Z,84.00
2022-11-12T06:41:17.792Z,84.23
2022-11-12T06:44:04.083Z,83.85
2022-11-12T06:46:49.310Z,84.01
2022-11-12T06:49:34.405Z,83.93
2022-11-12T06:52:19.180Z,84.10
2022-11-12T06:55:04.717Z,84.41
2022-11-12T06:57:53.113Z,84.32
2022-11-12T07:00:37.895Z,84.27
2022-11-12T07:03:23.023Z,83.93
2022-11-12T07:06:17.716Z,84.13
2022-11-12T07:09:03.654Z,84.73
2022-11-12T07:11:49.403Z,84.38
2022-11-12T07:14:34.278Z,84.45
2022-11-12T07:17:19.124Z,84.81
2022-11-12T07:20:04.782Z,85.12
2022-11-12T07:22:49.636Z,85.14
2022-11-12T07:25:34.804Z,85.03
2022-11-12T07:28:19.441Z,84.73
2022-11-12T07:31:07.138Z,84.52
2022-11-12T07:33:52.233Z,84.79
2022-11-12T07:36:36.955Z,85.06
2022-11-12T07:39:21.937Z,85.20
2022-11-12T07:42:07.239Z,84.64
2022-11-12T07:44:52.458Z,84.75
2022-11-12T07:47:37.331Z,84.81
2022-11-12T07:50:22.306Z,84.43
2022-11-12T07:53:07.221Z,84.76
2022-11-12T07:55:56.261Z,84.63
2022-11-12T07:58:41.447Z,85.09
2022-11-12T08:01:31.013Z,85.00
2022-11-12T08:04:16.332Z,84.88
2022-11-12T08:07:01.601Z,84.75
2022-11-12T08:09:46.808Z,85.38
2022-11-12T08:12:31.787Z,85.84
2022-11-12T08:15:16.526Z,85.81
2022-11-12T08:18:01.481Z,85.72
2022-11-12T08:20:46.227Z,85.72
2022-11-12T08:23:31.393Z,85.35
2022-11-12T08:26:18.537Z,85.75
2022-11-12T08:29:08.300Z,85.90
2022-11-12T08:31:53.769Z,85.51
2022-11-12T08:34:40.582Z,85.58
2022-11-12T08:37:26.442Z,85.78
2022-11-12T08:40:11.947Z,85.77
2022-11-12T08:43:01.372Z,85.58
2022-11-12T08:45:47.990Z,85.67
2022-11-12T08:48:34.157Z,85.66
2022-11-12T08:51:19.354Z,85.36
2022-11-12T08:54:04.303Z,85.86
2022-11-12T08:56:49.003Z,85.90
2022-11-12T08:59:34.107Z,86.05
2022-11-12T09:02:19.171Z,85.89
2022-11-12T09:05:04.690Z,85.80
2022-11-12T09:07:56.737Z,85.72
2022-11-12T09:10:42.208Z,85.62
2022-11-12T09:13:27.134Z,86.15
2022-11-12T09:16:12.511Z,86.06
2022-11-12T09:18:57.557Z,86.03
2022-11-12T09:21:42.232Z,85.99
2022-11-12T09:24:27.254Z,85.54
2022-11-12T09:27:12.017Z,85.52
2022-11-12T09:29:57.177Z,85.62
2022-11-12T09:32:42.290Z,85.86
2022-11-12T09:35:27.383Z,85.76
2022-11-12T09:38:14.488Z,85.51
2022-11-12T09:41:21.815Z,85.82
2022-11-12T09:44:13.131Z,86.19
2022-11-12T09:47:04.082Z,85.60
2022-11-12T09:49:57.168Z,85.68
2022-11-12T09:52:47.874Z,85.39
2022-11-12T09:55:42.090Z,85.72
2022-11-12T09:58:27.293Z,85.56
2022-11-12T10:01:21.660Z,85.70
2022-11-12T10:04:28.449Z,85.74
2022-11-12T10:07:43.977Z,85.82
2022-11-12T10:10:36.980Z,85.80
2022-11-12T10:13:30.941Z,85.71
2022-11-12T10:16:45.046Z,85.59
2022-11-12T10:20:00.565Z,85.85
2022-11-12T10:22:54.587Z,85.77
2022-11-12T10:25:42.997Z,85.68
2022-11-12T10:28:41.714Z,85.66
2022-11-12T10:31:26.857Z,85.82
2022-11-12T10:34:20.586Z,85.31
2022-11-12T10:37:21.763Z,85.17
2022-11-12T10:40:38.216Z,85.71
2022-11-12T10:43:24.268Z,85.51
2022-11-12T10:46:18.880Z,85.67
2022-11-12T10:49:09.863Z,85.76
2022-11-12T10:51:57.445Z,85.56
2022-11-12T10:54:42.409Z,85.66
2022-11-12T10:57:27.198Z,85.25
2022-11-12T11:00:12.182Z,85.63
2022-11-12T11:02:58.264Z,85.46
2022-11-12T11:05:55.299Z,85.54
2022-11-12T11:08:46.129Z,85.69
2022-11-12T11:11:31.561Z,85.39
2022-11-12T11:14:22.336Z,85.43
2022-11-12T11:17:15.945Z,85.79
2022-11-12T11:20:02.129Z,85.54
2022-11-12T11:22:55.943Z,85.58
2022-11-12T11:25:42.362Z,85.57
2022-11-12T11:28:45.065Z,85.33
2022-11-12T11:31:52.630Z,85.27
2022-11-12T11:34:53.779Z,85.54
2022-11-12T11:37:55.883Z,85.63
2022-11-12T11:40:59.786Z,85.46
2022-11-12T11:44:01.496Z,85.17
2022-11-12T11:47:05.461Z,85.06
2022-11-12T11:50:19.709Z,85.22
2022-11-12T11:53:28.990Z,85.03
2022-11-12T11:56:26.231Z,85.42
2022-11-12T11:59:36.848Z,85.32
2022-11-12T12:02:22.621Z,85.46
2022-11-12T12:05:29.870Z,85.49
2022-11-12T12:08:40.774Z,85.14
2022-11-12T12:11:44.792Z,84.88
2022-11-12T12:14:36.626Z,84.77
2022-11-12T12:17:49.568Z,84.76
2022-11-12T12:20:53.782Z,85.24
2022-11-12T12:24:20.489Z,85.14
2022-11-12T12:27:21.843Z,85.24
2022-11-12T12:30:17.184Z,84.98
2022-11-12T12:33:15.298Z,84.65
2022-11-12T12:36:10.832Z,84.63
2022-11-12T12:39:17.423Z,84.81
2022-11-12T12:42:21.661Z,84.80
2022-11-12T12:45:24.861Z,84.79
2022-11-12T12:48:24.990Z,84.87
2022-11-12T12:51:10.825Z,84.65
2022-11-12T12:53:55.964Z,84.35
2022-11-12T12:56:46.570Z,84.44
2022-11-12T12:59:31.915Z,84.65
2022-11-12T13:02:23.909Z,84.78
2022-11-12T13:05:29.210Z,84.56
2022-11-12T13:08:22.480Z,84.56
2022-11-12T13:11:07.869Z,84.35
2022-11-12T13:13:52.907Z,84.10
2022-11-12T13:16:50.350Z,84.07
2022-11-12T13:19:42.990Z,84.44
2022-11-12T13:22:37.195Z,84.63
2022-11-12T13:25:28.440Z,84.59
2022-11-12T13:28:13.978Z,84.20
2022-11-12T13:31:00.843Z,83.99
2022-11-12T13:33:47.140Z,83.80
2022-11-12T13:36:32.294Z,83.55
2022-11-12T13:39:19.557Z,83.62
2022-11-12T13:42:36.654Z,83.79
2022-11-12T13:45:24.337Z,84.23
2022-11-12T13:48:14.470Z,84.29
2022-11-12T13:51:10.991Z,84.20
2022-11-12T13:53:55.904Z,84.12
2022-11-12T13:56:40.835Z,84.01
2022-11-12T13:59:25.741Z,83.94
2022-11-12T14:02:21.798Z,83.70
2022-11-12T14:05:18.937Z,83.71
2022-11-12T14:08:22.049Z,83.75
2022-11-12T14:11:20.088Z,83.74
2022-11-12T14:14:23.742Z,83.79
2022-11-12T14:17:59.711Z,83.83
2022-11-12T14:20:46.150Z,83.45
2022-11-12T14:23:31.178Z,83.45
2022-11-12T14:26:42.680Z,83.31
2022-11-12T14:29:32.953Z,83.12
2022-11-12T14:32:19.929Z,83.50
2022-11-12T14:35:29.356Z,83.93
2022-11-12T14:38:27.065Z,83.99
2022-11-12T14:41:18.236Z,83.61
2022-11-12T14:44:13.195Z,83.41
2022-11-12T14:47:00.119Z,83.44
2022-11-12T14:49:48.487Z,83.47
2022-11-12T14:52:41.874Z,83.71
2022-11-12T14:55:30.985Z,83.63
2022-11-12T14:58:18.239Z,83.73
2022-11-12T15:04:45.475Z,83.62
2022-11-12T15:07:34.116Z,83.54
2022-11-12T15:10:38.035Z,83.54
2022-11-12T15:13:26.107Z,83.81
2022-11-12T15:16:18.103Z,84.25
2022-11-12T15:19:05.567Z,84.38
2022-11-12T15:21:53.497Z,84.15
2022-11-12T15:24:40.583Z,83.66
2022-11-12T15:27:37.797Z,83.36
2022-11-12T15:33:23.072Z,83.45
2022-11-12T15:36:19.493Z,83.75
2022-11-12T15:39:14.300Z,83.85
2022-11-12T15:42:04.637Z,84.09
2022-11-12T15:44:57.563Z,83.92
2022-11-12T15:47:44.103Z,83.91
2022-11-12T15:50:31.896Z,83.95
2022-11-12T15:53:18.995Z,83.83
2022-11-12T15:56:08.477Z,83.47
2022-11-12T15:58:55.492Z,83.76
2022-11-12T16:01:41.750Z,83.91
2022-11-12T16:04:28.323Z,83.89
2022-11-12T16:07:14.834Z,83.98
2022-11-12T16:10:00.971Z,83.71
2022-11-12T16:12:48.100Z,83.59
2022-11-12T16:15:35.696Z,83.65
2022-11-12T16:18:23.053Z,83.57
2022-11-12T16:21:09.753Z,83.76
2022-11-12T16:23:56.338Z,84.06
2022-11-12T16:26:42.644Z,84.39
2022-11-12T16:29:29.174Z,84.15
2022-11-12T16:32:19.243Z,83.98
2022-11-12T16:35:07.231Z,83.44
2022-11-12T16:37:54.816Z,83.16
2022-11-12T16:40:42.456Z,83.22
2022-11-12T16:43:28.978Z,83.43
2022-11-12T16:46:28.115Z,83.50
2022-11-12T16:49:15.486Z,83.98
2022-11-12T16:52:01.855Z,84.24
2022-11-12T16:54:48.007Z,83.97
2022-11-12T16:57:34.602Z,83.68
2022-11-12T17:00:23.051Z,83.86
2022-11-12T17:03:12.963Z,83.71
2022-11-12T17:05:59.434Z,83.83
2022-11-12T17:08:55.384Z,83.65
2022-11-12T17:11:41.746Z,83.77
2022-11-12T17:14:28.627Z,84.08
2022-11-12T17:17:15.013Z,84.26
2022-11-12T17:20:01.336Z,83.96
2022-11-12T17:22:47.899Z,83.75
2022-11-12T17:25:33.980Z,83.33
2022-11-12T17:28:20.598Z,83.49
2022-11-12T17:31:10.578Z,83.78
2022-11-12T17:33:56.714Z,84.09
2022-11-12T17:36:43.937Z,84.09
2022-11-12T17:39:30.786Z,83.97
2022-11-12T17:42:17.319Z,83.75
2022-11-12T17:45:04.045Z,83.73
2022-11-12T17:47:50.226Z,83.65
2022-11-12T17:50:36.854Z,83.52
2022-11-12T17:53:23.209Z,83.60
2022-11-12T17:56:12.194Z,83.80
2022-11-12T17:58:59.742Z,83.90
2022-11-12T18:01:46.217Z,84.00
2022-11-12T18:04:32.459Z,84.03
2022-11-12T18:07:18.719Z,83.77
2022-11-12T18:10:05.227Z,83.35
2022-11-12T18:12:52.183Z,83.53
2022-11-12T18:15:38.735Z,83.86
2022-11-12T18:18:24.808Z,84.10
2022-11-12T18:21:13.282Z,83.75
2022-11-12T18:23:59.375Z,83.70
2022-11-12T18:26:46.191Z,83.55
2022-11-12T18:29:32.275Z,83.38
2022-11-12T18:32:18.511Z,83.33
2022-11-12T18:35:05.727Z,83.39
2022-11-12T18:37:52.532Z,83.52
2022-11-12T18:40:38.824Z,83.74
2022-11-12T18:43:25.124Z,83.23
2022-11-12T18:46:11.915Z,83.12
2022-11-12T18:48:58.448Z,82.95
2022-11-12T18:51:44.836Z,82.76
2022-11-12T18:54:30.894Z,82.83
2022-11-12T18:57:17.098Z,83.03
2022-11-12T19:00:04.159Z,83.38
2022-11-12T19:02:51.128Z,83.52
2022-11-12T19:05:37.637Z,83.82
2022-11-12T19:08:23.696Z,83.58
2022-11-12T19:11:12.462Z,83.47
2022-11-12T19:13:59.161Z,83.39
2022-11-12T19:16:45.540Z,83.20
2022-11-12T19:19:31.695Z,83.21
2022-11-12T19:22:18.183Z,83.22
2022-11-12T19:25:04.441Z,83.58
2022-11-12T19:27:50.642Z,83.88
2022-11-12T19:30:37.156Z,84.00
2022-11-12T19:33:24.064Z,83.93
2022-11-12T19:36:14.168Z,83.83
2022-11-12T19:39:02.410Z,83.90
2022-11-12T19:41:48.754Z,83.85
2022-11-12T19:44:35.046Z,83.93
2022-11-12T19:47:21.494Z,83.65
2022-11-12T19:50:08.266Z,83.82
2022-11-12T19:52:54.916Z,84.14
2022-11-12T19:55:41.362Z,83.89
2022-11-12T19:58:28.220Z,83.96
2022-11-12T20:01:17.691Z,83.91
2022-11-12T20:04:04.436Z,83.75
2022-11-12T20:06:50.706Z,84.07
2022-11-12T20:09:36.901Z,84.51
2022-11-12T20:12:25.193Z,84.73
2022-11-12T20:15:11.768Z,84.73
2022-11-12T20:17:57.709Z,84.63
2022-11-12T20:20:54.183Z,84.71
2022-11-12T20:23:45.459Z,84.65
2022-11-12T20:26:31.763Z,84.40
2022-11-12T20:32:43.557Z,85.01
2022-11-12T20:35:30.076Z,84.94
2022-11-12T20:38:16.429Z,84.40
2022-11-12T20:41:04.688Z,84.34
2022-11-12T20:43:57.120Z,84.34
2022-11-12T20:46:43.682Z,84.58
2022-11-12T20:49:29.869Z,84.84
2022-11-12T20:52:16.281Z,84.98
2022-11-12T20:55:02.683Z,84.97
2022-11-12T20:57:49.387Z,84.84
2022-11-12T21:00:35.839Z,84.60
2022-11-12T21:03:21.970Z,85.09
2022-11-12T21:06:11.658Z,85.02
2022-11-12T21:09:00.114Z,85.15
2022-11-12T21:11:46.307Z,85.42
2022-11-12T21:14:32.462Z,85.29
2022-11-12T21:17:19.790Z,85.40
2022-11-12T21:20:06.707Z,85.09
2022-11-12T21:22:53.381Z,84.86
2022-11-12T21:25:40.354Z,84.94
2022-11-12T21:28:27.051Z,85.13
2022-11-12T21:31:17.950Z,85.26
2022-11-12T21:34:04.741Z,85.13
2022-11-12T21:36:51.514Z,85.03
2022-11-12T21:39:37.746Z,84.79
2022-11-12T21:42:24.108Z,85.12
2022-11-12T21:45:11.312Z,85.41
2022-11-12T21:47:57.340Z,85.53
2022-11-12T21:50:43.880Z,85.23
2022-11-12T21:53:30.619Z,85.35
2022-11-12T21:56:18.699Z,85.29
2022-11-12T21:59:05.151Z,85.23
2022-11-12T22:01:51.461Z,85.08
2022-11-12T22:04:38.474Z,85.20
2022-11-12T22:07:25.125Z,85.56
2022-11-12T22:10:11.565Z,85.74
2022-11-12T22:13:25.365Z,85.43
2022-11-12T22:16:07.238Z,85.82
2022-11-12T22:18:54.978Z,85.74
2022-11-12T22:21:41.826Z,85.46
2022-11-12T22:24:27.847Z,85.45
2022-11-12T22:27:14.435Z,85.78
2022-11-12T22:30:00.556Z,85.78
2022-11-12T22:32:46.681Z,85.88
2022-11-12T22:35:33.548Z,85.58
2022-11-12T22:38:19.944Z,85.60
2022-11-12T22:41:08.106Z,85.55
2022-11-12T22:43:56.313Z,85.73
2022-11-12T22:46:42.828Z,85.75
2022-11-12T22:49:29.598Z,85.99
2022-11-12T22:52:15.622Z,86.34
2022-11-12T22:55:02.041Z,86.58
2022-11-12T22:57:48.365Z,86.46
2022-11-12T23:00:34.537Z,86.33
2022-11-12T23:03:20.848Z,85.85
2022-11-12T23:06:07.205Z,86.16
2022-11-12T23:08:55.016Z,85.99
2022-11-12T23:11:41.576Z,86.37
2022-11-12T23:14:27.701Z,86.73
2022-11-12T23:17:14.340Z,86.56
2022-11-12T23:20:00.432Z,86.60
2022-11-12T23:22:46.457Z,86.46
2022-11-12T23:25:34.678Z,86.31
2022-11-12T23:28:21.205Z,86.55
2022-11-12T23:31:13.261Z,86.57
2022-11-12T23:34:00.609Z,86.69
2022-11-12T23:36:46.991Z,86.52
2022-11-12T23:39:33.097Z,86.46
2022-11-12T23:42:19.622Z,86.48
2022-11-12T23:45:06.867Z,86.66
2022-11-12T23:47:54.119Z,86.87
2022-11-12T23:50:40.191Z,86.97
2022-11-12T23:53:26.783Z,87.14
2022-11-12T23:56:15.979Z,86.78
2022-11-12T23:59:02.559Z,86.60
